Time;durP1;ratioP1;P1;durP2;ratioP2;P2;SDS_P1;SDS_P2;PMS_P1;PMS_P2;Temp;Humidity;BMP_temperature;BMP_pressure;BME280_temperature;BME280_humidity;BME280_pressure;Samples;Min_cycle;Max_cycle;Signal;HPM_P1;HPM_P2
2022/12/02 00:00:17;;;;;;;;;40.67;34.33;;;;;;;;5085349;27;45376;-86
2022/12/02 00:02:43;;;;;;;;;45.00;35.67;;;;;;;;5072886;28;45589;-85
2022/12/02 00:05:14;;;;;;;;;35.00;28.00;;;;;;;;5060725;28;45877;-86
2022/12/02 00:07:41;;;;;;;;;42.00;32.33;;;;;;;;5059196;28;45580;-86
2022/12/02 00:10:27;;;;;;;;;47.00;34.67;;;;;;;;5070997;28;45566;-85
2022/12/02 00:12:52;;;;;;;;;45.00;35.00;;;;;;;;5077344;28;45366;-85
2022/12/02 00:15:30;;;;;;;;;38.00;34.33;;;;;;;;5089117;28;45819;-85
2022/12/02 00:17:55;;;;;;;;;48.67;35.00;;;;;;;;5089004;28;45589;-87
2022/12/02 00:20:20;;;;;;;;;53.25;38.00;;;;;;;;5089786;28;45265;-86
2022/12/02 00:22:46;;;;;;;;;44.00;34.25;;;;;;;;5096570;27;45338;-87
2022/12/02 00:25:11;;;;;;;;;34.75;28.50;;;;;;;;5098425;27;45387;-87
2022/12/02 00:27:38;;;;;;;;;48.33;34.67;;;;;;;;5089710;28;46312;-87
2022/12/02 00:30:03;;;;;;;;;48.50;39.25;;;;;;;;5071495;28;45732;-87
2022/12/02 00:32:29;;;;;;;;;38.50;33.50;;;;;;;;5076528;27;45271;-89
2022/12/02 00:34:54;;;;;;;;;44.50;35.25;;;;;;;;5090084;28;45386;-88
2022/12/02 00:37:20;;;;;;;;;48.75;37.75;;;;;;;;5070870;28;48259;-86
2022/12/02 00:39:45;;;;;;;;;50.25;37.50;;;;;;;;5090920;28;45379;-86
2022/12/02 00:42:10;;;;;;;;;59.25;37.50;;;;;;;;5071999;28;45570;-85
2022/12/02 00:47:19;;;;;;;;;45.25;35.50;;;;;;;;5090246;28;45839;-86
2022/12/02 00:49:45;;;;;;;;;41.00;33.50;;;;;;;;5059295;28;45358;-84
2022/12/02 00:52:10;;;;;;;;;46.25;35.75;;;;;;;;5052215;28;45402;-86
2022/12/02 00:54:36;;;;;;;;;53.50;37.75;;;;;;;;5050274;28;45522;-85
2022/12/02 00:57:01;;;;;;;;;51.00;39.25;;;;;;;;5085094;28;47295;-87
2022/12/02 00:59:26;;;;;;;;;51.25;38.50;;;;;;;;5070041;28;44713;-85
2022/12/02 01:01:52;;;;;;;;;44.50;34.75;;;;;;;;5083605;28;45200;-85
2022/12/02 01:04:17;;;;;;;;;52.00;40.75;;;;;;;;5078810;28;45580;-85
2022/12/02 01:06:43;;;;;;;;;45.50;33.00;;;;;;;;5071534;28;45721;-86
2022/12/02 01:09:08;;;;;;;;;45.25;33.00;;;;;;;;5071678;28;45412;-86
2022/12/02 01:11:33;;;;;;;;;50.25;36.25;;;;;;;;5086072;28;45448;-84
2022/12/02 01:13:59;;;;;;;;;52.00;39.00;;;;;;;;5085647;28;45765;-83
2022/12/02 01:16:24;;;;;;;;;44.00;35.00;;;;;;;;5085748;28;45401;-84
2022/12/02 01:18:50;;;;;;;;;40.00;32.67;;;;;;;;5100560;27;45431;-83
2022/12/02 01:21:15;;;;;;;;;48.00;35.33;;;;;;;;5086001;28;45354;-84
2022/12/02 01:23:40;;;;;;;;;51.00;35.75;;;;;;;;5075193;28;45477;-84
2022/12/02 01:26:06;;;;;;;;;53.25;37.50;;;;;;;;5068742;28;47318;-82
2022/12/02 01:28:31;;;;;;;;;49.00;37.00;;;;;;;;5068326;28;45329;-85
2022/12/02 01:30:56;;;;;;;;;41.00;30.25;;;;;;;;5090400;28;45319;-84
2022/12/02 01:33:22;;;;;;;;;38.25;33.00;;;;;;;;5092234;28;44775;-86
2022/12/02 01:35:47;;;;;;;;;46.75;36.00;;;;;;;;5088020;28;45307;-86
2022/12/02 01:38:13;;;;;;;;;48.50;36.00;;;;;;;;5072727;28;45427;-84
2022/12/02 01:40:39;;;;;;;;;50.50;38.25;;;;;;;;5073066;28;45357;-87
2022/12/02 01:43:04;;;;;;;;;56.25;40.50;;;;;;;;5089760;28;45340;-85
2022/12/02 01:45:30;;;;;;;;;44.25;37.25;;;;;;;;5070181;28;47141;-85
2022/12/02 01:47:55;;;;;;;;;51.00;37.25;;;;;;;;5067865;28;45430;-84
2022/12/02 01:50:21;;;;;;;;;48.25;34.50;;;;;;;;5053086;28;45494;-86
2022/12/02 01:52:46;;;;;;;;;45.25;35.25;;;;;;;;5070083;28;45658;-85
2022/12/02 01:55:14;;;;;;;;;51.75;41.25;;;;;;;;5074112;28;46885;-85
2022/12/02 01:57:39;;;;;;;;;48.00;36.75;;;;;;;;5088852;28;45378;-84
2022/12/02 02:00:05;;;;;;;;;47.00;36.00;;;;;;;;5056420;28;45406;-85
2022/12/02 02:02:36;;;;;;;;;43.00;35.75;;;;;;;;5087641;28;45353;-84
2022/12/02 02:05:19;;;;;;;;;55.00;39.00;;;;;;;;5067782;28;46562;-84
2022/12/02 02:07:47;;;;;;;;;49.00;37.25;;;;;;;;5050220;28;45412;-85
2022/12/02 02:10:12;;;;;;;;;50.67;37.67;;;;;;;;5065654;28;45398;-84
2022/12/02 02:12:37;;;;;;;;;47.75;37.00;;;;;;;;5088273;28;45395;-85
2022/12/02 02:15:04;;;;;;;;;53.00;37.25;;;;;;;;5075988;28;47314;-85
2022/12/02 02:17:32;;;;;;;;;47.00;37.00;;;;;;;;5087519;28;45356;-84
2022/12/02 02:20:00;;;;;;;;;34.25;30.75;;;;;;;;5070235;28;45685;-83
2022/12/02 02:22:35;;;;;;;;;42.25;33.00;;;;;;;;5089566;28;45450;-85
2022/12/02 02:25:01;;;;;;;;;43.00;33.33;;;;;;;;5075255;28;45438;-86
2022/12/02 02:27:26;;;;;;;;;45.33;35.67;;;;;;;;5072318;27;45414;-85
2022/12/02 02:29:52;;;;;;;;;49.75;36.00;;;;;;;;5087996;28;45498;-85
2022/12/02 02:32:17;;;;;;;;;47.75;37.25;;;;;;;;5088064;28;45456;-86
2022/12/02 02:34:45;;;;;;;;;52.25;37.00;;;;;;;;5070210;28;47347;-86
2022/12/02 02:37:11;;;;;;;;;54.00;38.50;;;;;;;;5071106;28;45369;-86
2022/12/02 02:39:36;;;;;;;;;42.00;33.00;;;;;;;;5069754;28;45351;-86
2022/12/02 02:42:02;;;;;;;;;43.00;34.00;;;;;;;;5069199;28;45350;-87
2022/12/02 02:44:28;;;;;;;;;42.33;33.33;;;;;;;;5087392;28;45381;-85
2022/12/02 02:46:54;;;;;;;;;47.00;35.67;;;;;;;;5087342;28;45409;-85
2022/12/02 02:49:20;;;;;;;;;53.33;36.00;;;;;;;;5088345;28;45050;-86
2022/12/02 02:51:45;;;;;;;;;44.50;35.25;;;;;;;;5072855;28;45860;-85
2022/12/02 02:54:10;;;;;;;;;45.67;36.00;;;;;;;;5087084;28;45381;-85
2022/12/02 02:56:39;;;;;;;;;48.00;38.00;;;;;;;;5068422;28;45462;-84
2022/12/02 02:59:04;;;;;;;;;48.67;36.33;;;;;;;;5070091;28;45417;-85
2022/12/02 03:01:35;;;;;;;;;43.33;33.67;;;;;;;;5065420;28;45950;-83
2022/12/02 03:04:06;;;;;;;;;46.00;35.33;;;;;;;;5081442;27;47271;-85
2022/12/02 03:06:32;;;;;;;;;51.00;35.67;;;;;;;;5088447;28;45392;-85
2022/12/02 03:08:59;;;;;;;;;47.00;34.00;;;;;;;;5071313;28;45362;-85
2022/12/02 03:11:26;;;;;;;;;44.00;36.33;;;;;;;;5050519;28;45858;-86
2022/12/02 03:13:52;;;;;;;;;49.33;35.67;;;;;;;;5051190;28;47030;-85
2022/12/02 03:16:20;;;;;;;;;46.67;38.00;;;;;;;;5086005;28;45521;-83
2022/12/02 03:18:46;;;;;;;;;46.00;38.33;;;;;;;;5072668;28;45338;-84
2022/12/02 03:21:12;;;;;;;;;46.33;37.33;;;;;;;;5070480;28;45533;-86
2022/12/02 03:23:38;;;;;;;;;45.67;35.33;;;;;;;;5082984;27;45627;-83
2022/12/02 03:26:04;;;;;;;;;40.00;34.67;;;;;;;;5071430;28;45349;-84
2022/12/02 03:28:30;;;;;;;;;38.67;34.33;;;;;;;;5070964;28;45364;-86
2022/12/02 03:30:56;;;;;;;;;41.67;33.33;;;;;;;;5071307;28;46271;-83
2022/12/02 03:33:21;;;;;;;;;46.67;35.00;;;;;;;;5069412;28;46965;-85
2022/12/02 03:35:49;;;;;;;;;48.33;34.67;;;;;;;;5088893;28;44762;-85
2022/12/02 03:38:15;;;;;;;;;49.50;35.00;;;;;;;;5088635;27;45447;-85
2022/12/02 03:40:40;;;;;;;;;40.33;34.33;;;;;;;;5087687;28;45341;-85
2022/12/02 03:43:06;;;;;;;;;49.00;33.67;;;;;;;;5096843;27;45372;-86
2022/12/02 03:45:32;;;;;;;;;49.00;35.33;;;;;;;;5074253;28;45446;-85
2022/12/02 03:47:58;;;;;;;;;33.67;26.67;;;;;;;;5087692;28;45339;-85
2022/12/02 03:50:23;;;;;;;;;46.33;36.33;;;;;;;;5065988;28;46036;-85
2022/12/02 03:52:49;;;;;;;;;50.67;35.33;;;;;;;;5077446;27;46081;-86
2022/12/02 03:55:14;;;;;;;;;51.00;38.00;;;;;;;;5057553;28;44698;-86
2022/12/02 03:57:41;;;;;;;;;44.33;34.67;;;;;;;;5074192;28;45446;-85
2022/12/02 04:00:07;;;;;;;;;41.33;32.67;;;;;;;;5089558;28;45477;-87
2022/12/02 04:02:32;;;;;;;;;48.33;35.00;;;;;;;;5072046;28;47631;-87
2022/12/02 04:04:58;;;;;;;;;35.67;29.67;;;;;;;;5090087;28;45436;-86
2022/12/02 04:07:23;;;;;;;;;39.00;33.00;;;;;;;;5090751;28;45367;-84
2022/12/02 04:09:49;;;;;;;;;50.00;36.67;;;;;;;;5070693;28;45757;-84
2022/12/02 04:12:14;;;;;;;;;49.67;36.00;;;;;;;;5073406;28;46184;-86
2022/12/02 04:14:39;;;;;;;;;48.00;33.67;;;;;;;;5101712;27;45456;-85
2022/12/02 04:17:08;;;;;;;;;46.67;38.33;;;;;;;;5072933;28;45420;-85
2022/12/02 04:19:39;;;;;;;;;50.33;37.67;;;;;;;;5075323;28;45733;-87
2022/12/02 04:22:05;;;;;;;;;45.00;33.33;;;;;;;;5091105;28;46183;-84
2022/12/02 04:24:30;;;;;;;;;39.33;35.33;;;;;;;;5091564;28;45473;-85
2022/12/02 04:26:56;;;;;;;;;48.00;38.33;;;;;;;;5091768;28;45282;-85
2022/12/02 04:29:22;;;;;;;;;49.67;36.00;;;;;;;;5072021;28;46380;-85
2022/12/02 04:31:47;;;;;;;;;38.67;29.67;;;;;;;;5087036;27;47081;-85
2022/12/02 04:34:13;;;;;;;;;51.67;36.33;;;;;;;;5081440;28;45276;-85
2022/12/02 04:36:38;;;;;;;;;37.00;34.67;;;;;;;;5091131;28;45371;-85
2022/12/02 04:39:04;;;;;;;;;51.00;34.33;;;;;;;;5086283;28;45935;-84
2022/12/02 04:41:29;;;;;;;;;44.00;35.00;;;;;;;;5073331;28;47547;-85
2022/12/02 04:43:54;;;;;;;;;37.67;27.67;;;;;;;;5091681;28;45347;-84
2022/12/02 04:46:20;;;;;;;;;47.67;35.33;;;;;;;;5070932;28;45366;-85
2022/12/02 04:48:45;;;;;;;;;47.67;38.33;;;;;;;;5072300;28;45572;-84
2022/12/02 04:51:10;;;;;;;;;40.00;33.67;;;;;;;;5072098;28;46613;-85
2022/12/02 04:53:35;;;;;;;;;45.75;36.25;;;;;;;;5071442;28;45366;-85
2022/12/02 04:56:01;;;;;;;;;51.00;37.67;;;;;;;;5077196;28;45365;-85
2022/12/02 04:58:26;;;;;;;;;45.33;31.00;;;;;;;;5092737;27;45391;-84
2022/12/02 05:00:51;;;;;;;;;46.33;33.00;;;;;;;;5089521;28;45321;-84
2022/12/02 05:03:17;;;;;;;;;35.67;32.33;;;;;;;;5073059;28;45409;-84
2022/12/02 05:05:42;;;;;;;;;41.00;34.67;;;;;;;;5083736;28;45266;-84
2022/12/02 05:08:07;;;;;;;;;45.33;37.33;;;;;;;;5087968;28;44826;-83
2022/12/02 05:10:32;;;;;;;;;52.00;37.75;;;;;;;;5065757;28;45544;-84
2022/12/02 05:12:59;;;;;;;;;48.25;38.00;;;;;;;;5062611;28;45783;-83
2022/12/02 05:15:25;;;;;;;;;50.00;38.75;;;;;;;;5085543;28;45741;-83
2022/12/02 05:17:50;;;;;;;;;56.75;40.00;;;;;;;;5085432;28;45622;-84
2022/12/02 05:20:19;;;;;;;;;50.25;39.75;;;;;;;;5073809;28;45381;-84
2022/12/02 05:22:44;;;;;;;;;49.00;35.67;;;;;;;;5088186;28;45481;-82
2022/12/02 05:25:12;;;;;;;;;53.25;39.25;;;;;;;;5071397;28;45354;-85
2022/12/02 05:27:37;;;;;;;;;62.25;48.25;;;;;;;;5088341;28;45330;-83
2022/12/02 05:30:03;;;;;;;;;49.25;38.25;;;;;;;;5087334;28;45476;-85
2022/12/02 05:32:29;;;;;;;;;48.50;36.00;;;;;;;;5067408;28;45559;-85
2022/12/02 05:34:55;;;;;;;;;47.75;35.50;;;;;;;;5085367;28;45299;-86
2022/12/02 05:37:40;;;;;;;;;54.00;40.00;;;;;;;;5088747;28;45381;-87
2022/12/02 05:40:06;;;;;;;;;47.75;37.25;;;;;;;;5090868;28;46327;-86
2022/12/02 05:42:33;;;;;;;;;59.75;40.75;;;;;;;;5071509;28;45349;-85
2022/12/02 05:45:01;;;;;;;;;51.25;39.00;;;;;;;;5072212;28;45364;-86
2022/12/02 05:47:30;;;;;;;;;48.25;36.50;;;;;;;;5071136;28;45926;-84
2022/12/02 05:49:55;;;;;;;;;60.50;41.75;;;;;;;;5071815;28;46861;-84
2022/12/02 05:52:22;;;;;;;;;35.33;29.33;;;;;;;;5088970;28;45322;-83
2022/12/02 05:54:53;;;;;;;;;48.00;35.75;;;;;;;;5069734;28;45341;-84
2022/12/02 05:57:22;;;;;;;;;55.75;40.00;;;;;;;;5088869;28;45384;-84
2022/12/02 05:59:49;;;;;;;;;47.00;35.75;;;;;;;;5078421;27;45358;-86
2022/12/02 06:02:22;;;;;;;;;49.00;35.50;;;;;;;;5070704;28;45566;-86
2022/12/02 06:04:49;;;;;;;;;51.25;40.75;;;;;;;;5090844;27;44791;-82
2022/12/02 06:07:14;;;;;;;;;52.00;39.50;;;;;;;;5068520;28;45496;-84
2022/12/02 06:09:41;;;;;;;;;51.00;38.25;;;;;;;;5085536;28;45407;-86
2022/12/02 06:12:14;;;;;;;;;54.25;41.75;;;;;;;;5050263;28;45465;-84
2022/12/02 06:14:42;;;;;;;;;51.00;40.00;;;;;;;;5072298;28;45397;-84
2022/12/02 06:17:19;;;;;;;;;49.00;36.75;;;;;;;;5088375;28;45675;-88
2022/12/02 06:20:09;;;;;;;;;39.00;34.25;;;;;;;;5078748;28;47577;-85
2022/12/02 06:22:55;;;;;;;;;38.75;31.25;;;;;;;;5086859;28;44770;-88
2022/12/02 06:25:49;;;;;;;;;47.50;37.25;;;;;;;;5092060;28;45471;-86
2022/12/02 06:28:43;;;;;;;;;58.00;39.75;;;;;;;;5088876;28;45387;-86
2022/12/02 06:31:35;;;;;;;;;44.00;34.50;;;;;;;;5080034;28;45473;-83
2022/12/02 06:34:19;;;;;;;;;48.75;40.50;;;;;;;;5069404;28;45382;-85
2022/12/02 06:36:52;;;;;;;;;46.75;33.25;;;;;;;;5094944;27;45456;-86
2022/12/02 06:39:29;;;;;;;;;52.00;40.50;;;;;;;;5107609;27;45542;-82
2022/12/02 06:42:26;;;;;;;;;62.50;42.50;;;;;;;;5060701;28;46977;-86
2022/12/02 06:51:06;;;;;;;;;50.00;37.75;;;;;;;;5076064;28;44743;-84
2022/12/02 06:53:36;;;;;;;;;53.75;38.50;;;;;;;;5075820;28;46285;-84
2022/12/02 06:56:04;;;;;;;;;48.00;38.00;;;;;;;;5095676;28;45215;-86
2022/12/02 06:58:40;;;;;;;;;62.50;48.50;;;;;;;;5080338;28;44777;-83
2022/12/02 07:01:12;;;;;;;;;56.50;40.50;;;;;;;;5089442;28;45527;-84
2022/12/02 07:06:43;;;;;;;;;49.00;38.25;;;;;;;;5004282;28;45391;-87
2022/12/02 07:09:32;;;;;;;;;54.75;39.50;;;;;;;;5027784;28;45385;-86
2022/12/02 07:12:12;;;;;;;;;49.25;37.25;;;;;;;;5100511;27;44734;-84
2022/12/02 07:14:45;;;;;;;;;56.00;39.75;;;;;;;;5086491;28;45378;-84
2022/12/02 07:17:32;;;;;;;;;44.25;31.00;;;;;;;;5065936;28;45329;-86
2022/12/02 07:20:04;;;;;;;;;50.25;38.50;;;;;;;;5094441;28;45443;-86
2022/12/02 07:22:35;;;;;;;;;53.00;38.75;;;;;;;;5083788;27;45397;-86
2022/12/02 07:25:17;;;;;;;;;55.00;39.50;;;;;;;;5116203;27;45456;-87
2022/12/02 07:27:44;;;;;;;;;56.00;39.00;;;;;;;;5099905;27;45160;-87
2022/12/02 07:30:31;;;;;;;;;56.25;39.00;;;;;;;;5077745;28;44820;-87
2022/12/02 07:36:10;;;;;;;;;53.00;40.50;;;;;;;;5020410;28;45000;-83
2022/12/02 07:45:31;;;;;;;;;56.50;42.00;;;;;;;;4968162;28;44961;-81
2022/12/02 07:47:56;;;;;;;;;54.75;42.00;;;;;;;;4912927;28;45576;-83
2022/12/02 08:02:55;;;;;;;;;55.25;42.50;;;;;;;;4874973;29;45455;-88
2022/12/02 08:05:25;;;;;;;;;60.00;44.25;;;;;;;;4908106;28;45506;-86
2022/12/02 08:08:10;;;;;;;;;58.75;43.75;;;;;;;;4949374;28;45512;-87
2022/12/02 08:10:39;;;;;;;;;62.25;45.00;;;;;;;;5008576;28;45257;-86
2022/12/02 08:13:04;;;;;;;;;52.50;42.25;;;;;;;;4991588;28;45697;-86
2022/12/02 08:15:30;;;;;;;;;58.75;41.75;;;;;;;;5066459;28;44710;-85
2022/12/02 08:17:55;;;;;;;;;55.50;44.00;;;;;;;;5069109;28;45393;-87
2022/12/02 08:20:21;;;;;;;;;52.50;39.00;;;;;;;;5052526;28;47060;-85
2022/12/02 08:22:46;;;;;;;;;51.25;39.75;;;;;;;;5052875;28;45388;-86
2022/12/02 08:25:35;;;;;;;;;59.25;43.25;;;;;;;;5053408;28;45363;-85
2022/12/02 08:28:18;;;;;;;;;56.25;42.25;;;;;;;;5063355;28;45490;-89
2022/12/02 08:30:44;;;;;;;;;58.50;43.00;;;;;;;;5070281;28;45071;-84
2022/12/02 08:33:20;;;;;;;;;60.25;45.00;;;;;;;;5073700;28;44768;-82
2022/12/02 08:35:47;;;;;;;;;61.25;45.50;;;;;;;;5054084;28;45875;-82
2022/12/02 08:38:13;;;;;;;;;59.00;43.75;;;;;;;;5078387;28;45485;-81
2022/12/02 08:40:38;;;;;;;;;50.50;34.50;;;;;;;;5053393;28;46727;-81
2022/12/02 08:43:04;;;;;;;;;63.00;45.75;;;;;;;;5066037;28;45800;-83
2022/12/02 08:45:29;;;;;;;;;62.25;45.00;;;;;;;;5066093;28;45876;-82
2022/12/02 08:47:54;;;;;;;;;60.75;42.50;;;;;;;;5086263;28;45319;-84
2022/12/02 08:50:25;;;;;;;;;61.75;46.50;;;;;;;;5067788;28;47104;-81
2022/12/02 08:52:53;;;;;;;;;60.00;45.50;;;;;;;;5066612;28;45426;-80
2022/12/02 08:55:18;;;;;;;;;57.25;43.50;;;;;;;;5097339;27;45435;-84
2022/12/02 08:57:44;;;;;;;;;61.50;47.00;;;;;;;;5099987;27;45664;-82
2022/12/02 09:00:10;;;;;;;;;68.50;50.00;;;;;;;;5071441;28;47530;-82
2022/12/02 09:02:38;;;;;;;;;59.25;45.75;;;;;;;;5085858;28;44890;-82
2022/12/02 09:05:03;;;;;;;;;60.25;42.75;;;;;;;;5089367;27;45369;-82
2022/12/02 09:07:28;;;;;;;;;60.75;44.75;;;;;;;;5086034;27;45871;-81
2022/12/02 09:09:54;;;;;;;;;62.00;44.75;;;;;;;;5065728;28;48097;-82
2022/12/02 09:12:19;;;;;;;;;63.50;46.75;;;;;;;;5067298;28;45823;-86
2022/12/02 09:14:45;;;;;;;;;64.75;46.50;;;;;;;;5076486;28;45487;-83
2022/12/02 09:17:10;;;;;;;;;64.00;47.25;;;;;;;;5065332;28;45820;-85
2022/12/02 09:19:36;;;;;;;;;63.00;46.75;;;;;;;;5066468;28;45308;-85
2022/12/02 09:22:01;;;;;;;;;59.00;40.00;;;;;;;;5067870;28;45396;-81
2022/12/02 09:24:35;;;;;;;;;60.75;47.25;;;;;;;;5077134;28;45717;-82
2022/12/02 09:27:01;;;;;;;;;66.25;47.00;;;;;;;;5081451;27;44849;-82
2022/12/02 09:29:27;;;;;;;;;63.75;47.50;;;;;;;;5104138;27;45930;-84
2022/12/02 09:31:55;;;;;;;;;60.00;44.25;;;;;;;;5085578;28;45421;-84
2022/12/02 09:34:20;;;;;;;;;53.25;41.50;;;;;;;;5086768;27;45499;-85
2022/12/02 09:36:49;;;;;;;;;60.25;44.75;;;;;;;;5091053;28;45520;-82
2022/12/02 09:39:17;;;;;;;;;59.00;46.75;;;;;;;;5074863;28;47291;-81
2022/12/02 09:41:46;;;;;;;;;66.00;49.00;;;;;;;;5078487;28;45342;-82
2022/12/02 09:44:14;;;;;;;;;62.00;46.75;;;;;;;;5065943;28;45877;-82
2022/12/02 09:46:49;;;;;;;;;65.00;46.25;;;;;;;;5064468;28;46184;-81
2022/12/02 09:49:14;;;;;;;;;51.75;40.25;;;;;;;;5081832;28;46236;-81
2022/12/02 09:51:39;;;;;;;;;65.00;46.50;;;;;;;;5082790;28;45475;-84
2022/12/02 09:54:08;;;;;;;;;64.00;46.75;;;;;;;;5067121;28;45470;-81
2022/12/02 09:56:34;;;;;;;;;66.50;47.25;;;;;;;;5066347;28;45616;-83
2022/12/02 09:59:05;;;;;;;;;60.75;46.75;;;;;;;;5083773;28;45350;-82
2022/12/02 10:01:34;;;;;;;;;60.75;46.25;;;;;;;;5084053;27;45460;-81
2022/12/02 10:04:00;;;;;;;;;62.75;47.00;;;;;;;;5095405;27;45671;-82
2022/12/02 10:06:28;;;;;;;;;61.25;46.75;;;;;;;;5086214;27;45342;-84
2022/12/02 10:08:54;;;;;;;;;56.50;42.25;;;;;;;;5084742;28;46587;-83
2022/12/02 10:11:29;;;;;;;;;63.25;48.25;;;;;;;;5065223;28;45546;-83
2022/12/02 10:13:55;;;;;;;;;65.25;46.75;;;;;;;;5062340;28;45745;-81
2022/12/02 10:16:20;;;;;;;;;66.00;47.25;;;;;;;;5043275;28;45561;-81
2022/12/02 10:18:49;;;;;;;;;58.75;44.50;;;;;;;;5072547;28;47362;-83
2022/12/02 10:21:14;;;;;;;;;68.25;48.25;;;;;;;;5064708;28;45614;-82
2022/12/02 10:23:54;;;;;;;;;62.00;44.25;;;;;;;;5065250;28;45428;-83
2022/12/02 10:26:23;;;;;;;;;64.75;44.25;;;;;;;;5075227;28;46873;-81
2022/12/02 10:29:02;;;;;;;;;58.50;43.00;;;;;;;;5077331;28;46878;-81
2022/12/02 10:31:27;;;;;;;;;61.25;46.75;;;;;;;;5081708;28;45889;-81
2022/12/02 10:33:52;;;;;;;;;51.75;41.75;;;;;;;;5056168;28;45544;-80
2022/12/02 10:36:37;;;;;;;;;49.75;31.75;;;;;;;;5082744;28;45504;-83
2022/12/02 10:39:21;;;;;;;;;62.00;44.75;;;;;;;;5069710;28;47520;-82
2022/12/02 10:42:07;;;;;;;;;68.25;43.75;;;;;;;;5068174;28;45494;-83
2022/12/02 10:44:35;;;;;;;;;86.75;60.25;;;;;;;;5098363;27;45424;-87
2022/12/02 10:47:22;;;;;;;;;69.25;48.25;;;;;;;;5079010;28;46659;-83
2022/12/02 10:49:50;;;;;;;;;59.50;42.00;;;;;;;;5082814;28;45529;-82
2022/12/02 10:52:16;;;;;;;;;48.25;36.50;;;;;;;;5085716;27;45463;-81
2022/12/02 10:54:44;;;;;;;;;52.75;41.50;;;;;;;;5064985;28;45541;-83
2022/12/02 10:57:12;;;;;;;;;53.00;43.00;;;;;;;;5065447;28;46060;-82
2022/12/02 10:59:37;;;;;;;;;57.00;45.25;;;;;;;;5081699;27;45931;-83
2022/12/02 11:02:17;;;;;;;;;60.50;45.75;;;;;;;;5094815;27;45674;-82
2022/12/02 11:04:45;;;;;;;;;65.75;47.50;;;;;;;;5070482;28;45493;-87
2022/12/02 11:07:14;;;;;;;;;61.00;44.75;;;;;;;;5068101;28;46301;-85
2022/12/02 11:09:44;;;;;;;;;63.25;44.25;;;;;;;;5081496;28;45381;-86
2022/12/02 11:12:33;;;;;;;;;60.75;46.75;;;;;;;;5070389;28;45569;-84
2022/12/02 11:15:25;;;;;;;;;56.75;42.25;;;;;;;;5063170;28;45449;-84
2022/12/02 11:17:51;;;;;;;;;59.00;46.25;;;;;;;;5057961;28;45654;-80
2022/12/02 11:20:36;;;;;;;;;59.00;43.00;;;;;;;;5069927;28;47183;-85
2022/12/02 11:23:04;;;;;;;;;66.00;48.75;;;;;;;;5061812;27;45543;-87
2022/12/02 11:25:42;;;;;;;;;64.00;47.25;;;;;;;;5053114;28;45256;-86
2022/12/02 11:28:32;;;;;;;;;60.75;46.00;;;;;;;;5064339;28;46695;-86
2022/12/02 11:31:13;;;;;;;;;62.75;46.00;;;;;;;;5068005;28;45384;-85
2022/12/02 11:33:41;;;;;;;;;63.00;45.25;;;;;;;;5053428;28;45845;-86
2022/12/02 11:36:10;;;;;;;;;63.25;44.25;;;;;;;;5078993;28;45421;-82
2022/12/02 11:38:46;;;;;;;;;66.50;46.75;;;;;;;;5061708;28;46122;-84
2022/12/02 11:41:12;;;;;;;;;59.25;44.50;;;;;;;;5076341;28;45937;-80
2022/12/02 11:43:50;;;;;;;;;62.50;48.00;;;;;;;;5062805;28;45478;-86
2022/12/02 11:46:17;;;;;;;;;56.50;43.00;;;;;;;;5065997;28;45494;-86
2022/12/02 11:48:48;;;;;;;;;61.00;45.50;;;;;;;;5085358;28;45504;-86
2022/12/02 11:51:33;;;;;;;;;60.00;45.25;;;;;;;;5064516;27;47055;-87
2022/12/02 11:54:04;;;;;;;;;58.75;44.00;;;;;;;;5070090;28;45500;-86
2022/12/02 11:56:35;;;;;;;;;60.75;45.25;;;;;;;;5084125;28;45376;-86
2022/12/02 11:59:01;;;;;;;;;55.75;44.25;;;;;;;;5069797;28;45506;-84
2022/12/02 12:01:26;;;;;;;;;59.75;45.00;;;;;;;;5069552;28;45313;-86
2022/12/02 12:03:55;;;;;;;;;58.00;46.00;;;;;;;;5070203;28;45743;-83
2022/12/02 12:06:29;;;;;;;;;56.50;45.00;;;;;;;;5072929;28;45442;-85
2022/12/02 12:09:03;;;;;;;;;53.00;36.25;;;;;;;;5066230;28;46098;-85
2022/12/02 12:11:34;;;;;;;;;56.00;38.75;;;;;;;;5081985;28;45216;-84
2022/12/02 12:14:03;;;;;;;;;61.50;47.25;;;;;;;;5069516;28;45500;-87
2022/12/02 12:16:46;;;;;;;;;;;;;;;;;;;;;
2022/12/02 12:19:12;;;;;;;;;61.50;46.50;;;;;;;;5080167;28;73752;-86
2022/12/02 12:21:46;;;;;;;;;59.00;44.25;;;;;;;;5075992;28;45296;-83
2022/12/02 12:24:18;;;;;;;;;57.50;41.25;;;;;;;;5076543;28;45358;-85
2022/12/02 12:27:28;;;;;;;;;59.00;45.75;;;;;;;;5087793;28;45396;-86
2022/12/02 12:29:58;;;;;;;;;64.00;49.75;;;;;;;;5067727;28;45437;-87
2022/12/02 12:32:43;;;;;;;;;63.00;45.50;;;;;;;;5072079;28;47658;-85
2022/12/02 12:35:09;;;;;;;;;61.00;44.75;;;;;;;;5063792;28;45520;-80
2022/12/02 12:37:34;;;;;;;;;57.25;46.25;;;;;;;;5083034;28;45473;-84
2022/12/02 12:40:00;;;;;;;;;62.75;47.75;;;;;;;;5088749;28;45449;-85
2022/12/02 12:42:25;;;;;;;;;62.75;45.50;;;;;;;;5086035;28;45436;-88
2022/12/02 12:44:58;;;;;;;;;61.25;45.50;;;;;;;;5091860;28;45481;-85
2022/12/02 12:47:29;;;;;;;;;64.75;46.75;;;;;;;;5095189;28;45410;-85
2022/12/02 12:50:00;;;;;;;;;59.75;47.00;;;;;;;;5078918;28;45583;-88
2022/12/02 12:52:30;;;;;;;;;55.75;43.25;;;;;;;;5094870;28;45515;-87
2022/12/02 12:55:02;;;;;;;;;66.75;48.00;;;;;;;;5091135;28;45353;-87
2022/12/02 12:57:34;;;;;;;;;59.75;42.50;;;;;;;;5093988;27;45351;-88
2022/12/02 13:00:03;;;;;;;;;54.75;39.25;;;;;;;;5090304;28;45158;-84
2022/12/02 13:05:57;;;;;;;;;61.25;45.75;;;;;;;;5028008;28;45497;-88
2022/12/02 13:08:57;;;;;;;;;66.25;51.25;;;;;;;;5046585;28;45345;-87
2022/12/02 13:14:51;;;;;;;;;60.50;43.50;;;;;;;;4971750;28;45654;-86
2022/12/02 13:17:29;;;;;;;;;66.75;46.75;;;;;;;;4968264;28;45473;-86
2022/12/02 13:20:06;;;;;;;;;57.25;42.00;;;;;;;;5056110;28;45375;-87
2022/12/02 13:23:06;;;;;;;;;;;;;;;;;;;;;
2022/12/02 13:28:57;;;;;;;;;;;;;;;;;;;;;
2022/12/02 13:31:51;;;;;;;;;57.25;44.00;;;;;;;;5080873;28;69402;-88
2022/12/02 13:37:44;;;;;;;;;64.25;47.00;;;;;;;;5028484;28;45491;-84
2022/12/02 13:40:14;;;;;;;;;60.50;45.75;;;;;;;;5067740;28;45840;-82
2022/12/02 13:42:40;;;;;;;;;56.50;41.75;;;;;;;;5066060;28;45383;-83
2022/12/02 13:45:06;;;;;;;;;61.00;43.50;;;;;;;;5063943;28;46675;-82
2022/12/02 13:48:02;;;;;;;;;;;;;;;;;;;;;
2022/12/02 13:51:10;;;;;;;;;63.25;46.00;;;;;;;;5029559;28;45605;-84
2022/12/02 13:53:35;;;;;;;;;65.25;45.50;;;;;;;;5058782;28;45604;-84
2022/12/02 13:56:04;;;;;;;;;60.00;44.25;;;;;;;;5065635;28;45555;-86
2022/12/02 13:58:34;;;;;;;;;53.75;42.25;;;;;;;;5068231;28;45590;-84
2022/12/02 14:01:21;;;;;;;;;60.00;44.50;;;;;;;;5086346;27;45359;-85
2022/12/02 14:03:47;;;;;;;;;59.25;43.50;;;;;;;;5080907;28;45520;-84
2022/12/02 14:06:18;;;;;;;;;61.00;44.75;;;;;;;;5066560;28;45701;-84
2022/12/02 14:08:43;;;;;;;;;59.50;46.00;;;;;;;;5085426;28;45471;-84
2022/12/02 14:11:48;;;;;;;;;56.25;44.50;;;;;;;;5064441;28;45485;-83
2022/12/02 14:14:27;;;;;;;;;;;;;;;;;;;;;
2022/12/02 14:16:58;;;;;;;;;62.00;46.50;;;;;;;;5083175;28;74059;-85
2022/12/02 14:22:45;;;;;;;;;68.25;47.75;;;;;;;;5057621;28;45380;-84
2022/12/02 14:25:22;;;;;;;;;61.50;47.00;;;;;;;;5085594;28;45404;-84
2022/12/02 14:28:35;;;;;;;;;;;;;;;;;;;;;
2022/12/02 14:31:10;;;;;;;;;60.25;45.25;;;;;;;;5081964;28;45844;-85
2022/12/02 14:33:37;;;;;;;;;62.25;44.50;;;;;;;;5069401;28;45426;-82
2022/12/02 14:36:06;;;;;;;;;54.00;42.75;;;;;;;;5074079;28;45870;-88
2022/12/02 14:38:49;;;;;;;;;;;;;;;;;;;;;
2022/12/02 14:41:23;;;;;;;;;57.50;43.25;;;;;;;;5092501;27;74638;-89
2022/12/02 14:47:24;;;;;;;;;52.75;39.75;;;;;;;;5031679;28;45531;-87
2022/12/02 14:50:57;;;;;;;;;;;;;;;;;;;;;
2022/12/02 14:59:10;;;;;;;;;60.00;46.50;;;;;;;;5095355;28;45394;-90
2022/12/02 15:01:35;;;;;;;;;62.00;42.25;;;;;;;;5075798;28;45731;-87
2022/12/02 15:04:07;;;;;;;;;54.75;39.00;;;;;;;;5090520;28;46091;-88
2022/12/02 15:06:35;;;;;;;;;56.75;44.75;;;;;;;;5089855;28;45476;-87
2022/12/02 15:09:10;;;;;;;;;55.50;41.00;;;;;;;;5073652;28;44705;-87
2022/12/02 15:11:52;;;;;;;;;54.50;42.50;;;;;;;;5080689;28;44799;-87
2022/12/02 15:14:41;;;;;;;;;;;;;;;;;;;;;
2022/12/02 15:17:12;;;;;;;;;48.25;37.00;;;;;;;;5070533;28;72427;-88
2022/12/02 15:19:55;;;;;;;;;48.75;36.00;;;;;;;;5070570;28;46791;-85
2022/12/02 15:22:21;;;;;;;;;51.00;43.00;;;;;;;;5065824;28;45514;-80
2022/12/02 15:24:47;;;;;;;;;54.50;39.25;;;;;;;;5086517;28;46204;-87
2022/12/02 15:27:19;;;;;;;;;43.00;34.50;;;;;;;;5088360;28;45255;-88
2022/12/02 15:29:44;;;;;;;;;55.75;42.75;;;;;;;;5070555;28;45606;-88
2022/12/02 15:32:10;;;;;;;;;54.00;41.50;;;;;;;;5088292;28;45413;-86
2022/12/02 15:34:38;;;;;;;;;58.00;43.50;;;;;;;;5074104;28;46279;-87
2022/12/02 15:37:07;;;;;;;;;57.00;43.25;;;;;;;;5075491;28;45449;-87
2022/12/02 15:39:36;;;;;;;;;53.00;38.25;;;;;;;;5069630;28;45351;-88
2022/12/02 15:42:02;;;;;;;;;46.75;36.00;;;;;;;;5070094;28;45776;-82
2022/12/02 15:44:30;;;;;;;;;80.50;57.00;;;;;;;;5089024;28;46707;-80